Time;durP1;ratioP1;P1;durP2;ratioP2;P2;SDS_P1;SDS_P2;PMS_P1;PMS_P2;Temp;Humidity;BMP_temperature;BMP_pressure;BME280_temperature;BME280_humidity;BME280_pressure;Samples;Min_cycle;Max_cycle;Signal;HPM_P1;HPM_P2
2024/03/01 00:00:14;;;;;;;12.83;10.13;;;;;;;9.79;78.15;93379.44;519479;28;874;-69
2024/03/01 00:00:29;;;;;;;13.13;9.88;;;;;;;9.79;77.99;93368.41;519503;28;1050;-69
2024/03/01 00:00:45;;;;;;;14.75;9.45;;;;;;;9.79;77.75;93374.66;519500;28;924;-68
2024/03/01 00:01:00;;;;;;;13.40;8.70;;;;;;;9.76;77.82;93378.53;519459;28;1150;-69
2024/03/01 00:01:16;;;;;;;10.77;8.50;;;;;;;9.74;77.88;93377.59;519582;28;849;-69
2024/03/01 00:01:31;;;;;;;10.82;9.05;;;;;;;9.70;77.93;93368.94;519469;28;862;-69
2024/03/01 00:01:46;;;;;;;12.03;9.37;;;;;;;9.71;77.85;93373.16;519511;28;778;-69
2024/03/01 00:02:02;;;;;;;12.73;9.35;;;;;;;9.75;78.15;93373.53;519472;28;924;-68
2024/03/01 00:02:18;;;;;;;11.43;8.83;;;;;;;9.78;78.09;93384.25;519477;28;838;-69
2024/03/01 00:02:33;;;;;;;10.52;8.60;;;;;;;9.81;78.14;93365.88;519541;28;818;-69
2024/03/01 00:02:49;;;;;;;13.93;9.03;;;;;;;9.78;78.04;93377.97;519380;28;849;-69
2024/03/01 00:03:06;;;;;;;13.85;9.18;;;;;;;9.79;77.51;93362.91;519052;28;1597;-68
2024/03/01 00:03:21;;;;;;;12.27;9.55;;;;;;;9.81;77.37;93369.34;519554;28;936;-69
2024/03/01 00:03:37;;;;;;;11.63;8.93;;;;;;;9.84;77.58;93365.50;519505;28;973;-69
2024/03/01 00:03:52;;;;;;;10.88;8.32;;;;;;;9.84;77.34;93368.25;519665;28;758;-68
2024/03/01 00:04:08;;;;;;;10.93;8.13;;;;;;;9.86;77.40;93362.94;519449;28;893;-69
2024/03/01 00:04:23;;;;;;;11.13;8.23;;;;;;;9.86;77.00;93364.94;519541;28;972;-69
2024/03/01 00:04:39;;;;;;;11.37;8.50;;;;;;;9.84;77.24;93360.00;519438;28;895;-68
2024/03/01 00:04:54;;;;;;;11.15;8.50;;;;;;;9.83;76.84;93364.03;519630;28;861;-69
2024/03/01 00:05:10;;;;;;;11.37;8.57;;;;;;;9.83;77.08;93369.53;519496;28;1659;-69
2024/03/01 00:05:25;;;;;;;11.40;8.68;;;;;;;9.84;76.91;93364.75;519530;28;825;-69
2024/03/01 00:05:40;;;;;;;12.43;8.77;;;;;;;9.79;77.07;93362.91;519454;28;828;-69
2024/03/01 00:05:56;;;;;;;10.95;8.75;;;;;;;9.79;77.26;93363.63;519486;28;1109;-69
2024/03/01 00:06:13;;;;;;;10.40;8.87;;;;;;;9.75;77.18;93359.75;519613;28;785;-69
2024/03/01 00:06:29;;;;;;;11.45;8.63;;;;;;;9.74;77.39;93358.31;519454;28;1970;-68
2024/03/01 00:06:44;;;;;;;11.75;8.02;;;;;;;9.72;77.28;93364.34;519541;28;897;-68
2024/03/01 00:06:59;;;;;;;10.73;7.87;;;;;;;9.73;76.89;93362.31;519494;28;758;-68
2024/03/01 00:07:15;;;;;;;12.18;8.05;;;;;;;9.75;76.66;93365.28;519496;28;928;-69
2024/03/01 00:07:31;;;;;;;12.20;8.27;;;;;;;9.78;76.91;93369.72;519411;28;1137;-68
2024/03/01 00:07:46;;;;;;;11.55;8.23;;;;;;;9.80;76.63;93365.13;519543;28;1092;-69
2024/03/01 00:08:02;;;;;;;10.97;8.23;;;;;;;9.81;76.65;93363.13;519441;28;861;-69
2024/03/01 00:08:19;;;;;;;9.85;8.10;;;;;;;9.82;76.35;93361.81;519444;28;877;-69
2024/03/01 00:08:34;;;;;;;10.05;7.93;;;;;;;9.79;76.52;93362.91;519502;28;1050;-68
2024/03/01 00:08:49;;;;;;;10.70;8.10;;;;;;;9.75;76.64;93357.00;519500;28;900;-69
2024/03/01 00:09:05;;;;;;;10.80;8.07;;;;;;;9.73;76.20;93357.56;519482;28;872;-68
2024/03/01 00:09:20;;;;;;;9.27;7.32;;;;;;;9.78;76.24;93358.69;519511;28;1032;-69
2024/03/01 00:09:36;;;;;;;8.97;7.13;;;;;;;9.76;76.32;93359.22;519537;28;766;-69
2024/03/01 00:09:51;;;;;;;10.73;7.97;;;;;;;9.79;76.49;93358.13;519503;28;813;-69
2024/03/01 00:10:07;;;;;;;10.77;8.20;;;;;;;9.81;76.06;93355.56;519513;28;856;-68
2024/03/01 00:10:24;;;;;;;9.35;7.80;;;;;;;9.83;75.86;93353.00;519639;28;888;-69
2024/03/01 00:10:39;;;;;;;9.43;7.47;;;;;;;9.85;76.02;93355.94;519479;28;857;-69
2024/03/01 00:10:55;;;;;;;11.53;7.53;;;;;;;9.87;75.82;93352.66;519536;28;770;-69
2024/03/01 00:11:10;;;;;;;11.87;7.80;;;;;;;9.91;75.65;93353.03;519461;28;870;-69
2024/03/01 00:11:25;;;;;;;10.30;7.57;;;;;;;9.91;75.47;93353.03;519487;28;779;-69
2024/03/01 00:11:41;;;;;;;8.53;6.80;;;;;;;9.92;75.46;93348.97;519422;28;1302;-69
2024/03/01 00:11:57;;;;;;;8.50;7.07;;;;;;;9.92;75.42;93351.72;519496;28;786;-69
2024/03/01 00:12:12;;;;;;;9.50;7.80;;;;;;;9.92;75.77;93349.72;519531;28;818;-69
2024/03/01 00:12:28;;;;;;;10.65;8.15;;;;;;;9.87;75.62;93345.09;519502;28;825;-69
2024/03/01 00:12:43;;;;;;;8.90;7.33;;;;;;;9.80;75.70;93348.59;519466;28;854;-69
2024/03/01 00:12:58;;;;;;;7.88;7.00;;;;;;;9.81;75.75;93341.06;519436;28;817;-69
2024/03/01 00:13:14;;;;;;;9.53;7.53;;;;;;;9.79;75.63;93344.34;519479;28;790;-69
2024/03/01 00:13:29;;;;;;;9.25;7.18;;;;;;;9.82;75.54;93345.28;519496;28;888;-68
2024/03/01 00:13:45;;;;;;;8.53;7.30;;;;;;;9.84;75.64;93342.69;519528;28;775;-69
2024/03/01 00:14:00;;;;;;;8.27;7.25;;;;;;;9.85;75.47;93346.94;519381;28;865;-69
2024/03/01 00:14:16;;;;;;;8.83;7.23;;;;;;;9.83;75.73;93344.00;519584;28;885;-69
2024/03/01 00:14:32;;;;;;;10.88;7.38;;;;;;;9.80;75.49;93348.59;519528;28;833;-69
2024/03/01 00:14:48;;;;;;;11.43;7.50;;;;;;;9.73;75.49;93345.78;519549;28;934;-69
2024/03/01 00:15:04;;;;;;;9.00;7.40;;;;;;;9.68;76.02;93336.38;519529;28;860;-69
2024/03/01 00:15:20;;;;;;;8.35;7.40;;;;;;;9.68;75.63;93341.19;519518;28;813;-69
2024/03/01 00:15:36;;;;;;;8.73;7.17;;;;;;;9.68;75.79;93354.97;519422;28;814;-69
2024/03/01 00:15:51;;;;;;;7.88;6.82;;;;;;;9.68;75.83;93344.66;519545;28;909;-69
2024/03/01 00:16:07;;;;;;;8.50;7.43;;;;;;;9.74;75.96;93344.50;519417;28;892;-69
2024/03/01 00:16:22;;;;;;;9.03;7.37;;;;;;;9.77;75.27;93344.16;519594;28;793;-69
2024/03/01 00:16:38;;;;;;;9.75;6.95;;;;;;;9.80;75.19;93339.56;519616;28;876;-69
2024/03/01 00:16:53;;;;;;;9.90;7.23;;;;;;;9.84;75.15;93345.47;519461;28;754;-69
2024/03/01 00:17:09;;;;;;;8.88;7.65;;;;;;;9.82;75.19;93331.47;519496;28;845;-69
2024/03/01 00:17:24;;;;;;;8.43;7.20;;;;;;;9.75;75.33;93334.94;519574;28;778;-69
2024/03/01 00:17:40;;;;;;;10.13;6.82;;;;;;;9.69;75.05;93339.88;519505;28;868;-69
2024/03/01 00:17:55;;;;;;;10.17;6.97;;;;;;;9.69;75.01;93332.38;519557;28;810;-69
2024/03/01 00:18:10;;;;;;;8.18;6.63;;;;;;;9.72;74.92;93336.78;519457;28;925;-69
2024/03/01 00:18:26;;;;;;;8.93;6.90;;;;;;;9.76;75.42;93341.94;519391;28;825;-69
2024/03/01 00:18:43;;;;;;;8.98;7.10;;;;;;;9.55;74.96;93308.25;519453;28;881;-69
2024/03/01 00:18:58;;;;;;;8.15;6.88;;;;;;;9.81;74.94;93332.78;519381;28;935;-69
2024/03/01 00:19:13;;;;;;;7.63;6.65;;;;;;;9.84;74.90;93337.94;519562;28;794;-69
2024/03/01 00:19:30;;;;;;;7.83;6.73;;;;;;;9.86;75.08;93345.66;519507;28;786;-68
2024/03/01 00:19:45;;;;;;;7.70;6.40;;;;;;;9.84;74.74;93337.94;519538;28;917;-69
2024/03/01 00:20:01;;;;;;;8.70;6.43;;;;;;;9.87;74.64;93338.88;519501;28;901;-69
2024/03/01 00:20:16;;;;;;;8.63;6.70;;;;;;;9.88;74.41;93338.31;519506;28;850;-69
2024/03/01 00:20:32;;;;;;;8.57;6.53;;;;;;;9.83;74.35;93341.25;519507;28;864;-69
2024/03/01 00:20:47;;;;;;;8.80;6.60;;;;;;;9.84;74.55;93346.22;519306;28;905;-69
2024/03/01 00:21:03;;;;;;;8.75;6.72;;;;;;;9.87;74.65;93336.09;519285;28;790;-69
2024/03/01 00:21:18;;;;;;;10.80;6.80;;;;;;;9.90;74.20;93335.00;519270;28;830;-69
2024/03/01 00:21:34;;;;;;;9.60;6.90;;;;;;;9.91;74.34;93348.25;519120;28;2256;-69
2024/03/01 00:21:50;;;;;;;7.57;6.50;;;;;;;9.83;74.24;93335.72;519155;28;775;-69
2024/03/01 00:22:05;;;;;;;8.30;6.57;;;;;;;9.80;74.58;93342.31;519171;28;838;-69
2024/03/01 00:22:21;;;;;;;7.95;6.32;;;;;;;9.80;74.55;93340.31;519136;28;928;-69
2024/03/01 00:22:36;;;;;;;8.53;5.93;;;;;;;9.80;74.51;93345.09;519239;28;790;-69
2024/03/01 00:22:54;;;;;;;9.88;6.43;;;;;;;9.82;74.11;93348.78;519129;28;861;-69
2024/03/01 00:23:09;;;;;;;9.85;6.68;;;;;;;9.87;74.25;93355.41;519047;28;978;-69
2024/03/01 00:23:26;;;;;;;9.95;6.82;;;;;;;9.89;74.25;93350.81;519260;28;829;-69
2024/03/01 00:23:42;;;;;;;9.93;6.57;;;;;;;9.88;74.28;93343.09;519231;28;857;-69
2024/03/01 00:23:58;;;;;;;9.57;6.28;;;;;;;9.88;74.19;93352.09;519220;28;814;-69
2024/03/01 00:24:13;;;;;;;8.70;6.40;;;;;;;9.84;74.30;93351.72;519399;28;758;-69
2024/03/01 00:24:29;;;;;;;8.48;6.50;;;;;;;9.83;74.36;93349.50;519289;28;787;-69
2024/03/01 00:24:44;;;;;;;7.80;6.03;;;;;;;9.84;74.26;93348.22;519303;28;889;-69
2024/03/01 00:24:59;;;;;;;7.60;5.83;;;;;;;9.79;74.64;93343.59;519293;28;814;-69
2024/03/01 00:25:15;;;;;;;8.40;6.22;;;;;;;9.75;74.28;93345.97;519256;28;909;-69
2024/03/01 00:25:30;;;;;;;8.13;6.10;;;;;;;9.79;74.37;93349.84;519290;28;849;-69
2024/03/01 00:25:46;;;;;;;7.38;6.03;;;;;;;9.83;74.34;93350.22;519371;28;763;-69
2024/03/01 00:26:01;;;;;;;11.73;6.67;;;;;;;9.87;74.56;93344.38;519306;28;1102;-69
2024/03/01 00:26:17;;;;;;;14.25;7.20;;;;;;;9.90;74.55;93346.03;519324;28;923;-69
2024/03/01 00:26:32;;;;;;;10.27;6.53;;;;;;;9.86;73.86;93351.16;519231;28;1911;-69
2024/03/01 00:26:48;;;;;;;9.07;6.17;;;;;;;9.87;74.18;93358.88;519272;28;905;-69
2024/03/01 00:27:03;;;;;;;10.60;6.22;;;;;;;9.91;73.45;93339.25;519232;28;849;-69
2024/03/01 00:27:19;;;;;;;10.38;6.28;;;;;;;9.93;73.83;93347.69;519291;28;829;-69
2024/03/01 00:27:35;;;;;;;8.47;6.23;;;;;;;9.91;73.63;93345.50;519329;28;880;-69
2024/03/01 00:27:50;;;;;;;7.75;6.10;;;;;;;9.93;73.59;93347.69;519241;28;829;-69
2024/03/01 00:28:05;;;;;;;9.70;6.57;;;;;;;9.95;73.43;93347.88;519289;28;864;-69
2024/03/01 00:28:21;;;;;;;10.25;6.47;;;;;;;9.95;73.35;93350.66;519268;28;805;-68
2024/03/01 00:28:36;;;;;;;8.53;6.23;;;;;;;9.93;73.59;93344.94;519323;28;901;-69
2024/03/01 00:28:52;;;;;;;7.68;6.43;;;;;;;9.93;73.68;93347.69;519261;28;841;-69
2024/03/01 00:29:08;;;;;;;8.82;6.55;;;;;;;9.95;73.78;93342.38;519269;28;1069;-69
2024/03/01 00:29:23;;;;;;;9.53;6.80;;;;;;;9.98;73.49;93344.03;519343;28;766;-69
2024/03/01 00:29:39;;;;;;;8.80;6.40;;;;;;;10.00;73.15;93349.75;519209;28;849;-69
2024/03/01 00:29:54;;;;;;;7.78;6.18;;;;;;;10.03;73.36;93350.69;519299;28;782;-69
2024/03/01 00:30:10;;;;;;;7.57;6.13;;;;;;;10.04;73.59;93355.66;519372;28;754;-69
2024/03/01 00:30:25;;;;;;;7.50;6.00;;;;;;;10.06;73.52;93350.31;519586;28;785;-69
2024/03/01 00:30:41;;;;;;;7.93;5.97;;;;;;;10.09;73.57;93357.47;519395;28;802;-69
2024/03/01 00:30:56;;;;;;;8.68;5.93;;;;;;;10.08;73.42;93350.50;519478;28;857;-69
2024/03/01 00:31:12;;;;;;;8.93;6.40;;;;;;;10.09;73.03;93349.19;519481;28;960;-69
2024/03/01 00:31:27;;;;;;;8.05;6.65;;;;;;;10.13;72.92;93359.94;519500;28;822;-69
2024/03/01 00:31:42;;;;;;;9.47;6.27;;;;;;;10.10;73.11;93358.22;519520;28;845;-69
2024/03/01 00:31:58;;;;;;;10.63;6.35;;;;;;;10.12;73.08;93356.41;519398;28;909;-69
2024/03/01 00:32:13;;;;;;;8.63;6.20;;;;;;;10.13;72.74;93352.38;519472;28;790;-69
2024/03/01 00:32:32;;;;;;;8.97;6.07;;;;;;;10.14;72.87;93359.38;519475;28;781;-68
2024/03/01 00:32:47;;;;;;;9.23;6.82;;;;;;;10.14;72.80;93353.84;519516;28;845;-69
2024/03/01 00:33:03;;;;;;;8.40;6.37;;;;;;;10.09;73.05;93354.72;519439;28;821;-68
2024/03/01 00:33:18;;;;;;;10.32;6.18;;;;;;;10.08;73.05;93366.31;519454;28;806;-69
2024/03/01 00:33:34;;;;;;;10.97;6.30;;;;;;;10.08;73.15;93360.78;519406;28;1075;-68
2024/03/01 00:33:49;;;;;;;8.93;6.25;;;;;;;9.96;73.67;93349.38;519372;28;1033;-69
2024/03/01 00:34:05;;;;;;;8.57;6.63;;;;;;;9.94;73.83;93354.69;519298;28;758;-68
2024/03/01 00:34:20;;;;;;;10.73;7.20;;;;;;;9.97;73.71;93355.59;519338;28;798;-69
2024/03/01 00:34:36;;;;;;;10.60;7.00;;;;;;;10.00;74.13;93363.53;519281;28;758;-69
2024/03/01 00:34:52;;;;;;;8.40;6.85;;;;;;;10.04;73.71;93361.16;519254;28;864;-69
2024/03/01 00:35:08;;;;;;;7.85;6.72;;;;;;;10.01;73.52;93355.97;519236;28;801;-68
2024/03/01 00:35:23;;;;;;;7.18;6.15;;;;;;;10.04;73.36;93374.22;519400;28;881;-68
2024/03/01 00:35:39;;;;;;;7.07;6.17;;;;;;;10.05;73.44;93361.91;517098;28;936;-69
2024/03/01 00:35:54;;;;;;;6.43;5.55;;;;;;;10.09;73.30;93363.00;517240;28;785;-69
2024/03/01 00:36:10;;;;;;;7.50;5.77;;;;;;;10.11;73.20;93356.97;517018;28;916;-69
2024/03/01 00:36:25;;;;;;;8.93;6.50;;;;;;;10.03;73.71;93359.66;517117;28;782;-68
2024/03/01 00:36:41;;;;;;;10.67;6.63;;;;;;;9.96;73.61;93357.66;517077;28;857;-68
2024/03/01 00:36:56;;;;;;;10.50;6.63;;;;;;;9.94;73.95;93355.41;517129;28;940;-69
2024/03/01 00:37:12;;;;;;;8.80;6.77;;;;;;;9.97;73.91;93355.59;517133;28;856;-68
2024/03/01 00:37:27;;;;;;;9.50;6.70;;;;;;;9.95;74.29;93347.88;517492;28;794;-69
2024/03/01 00:37:43;;;;;;;8.93;6.43;;;;;;;9.92;74.08;93362.75;519213;28;821;-69
2024/03/01 00:37:58;;;;;;;8.50;6.53;;;;;;;9.93;74.09;93353.22;519217;28;848;-69
2024/03/01 00:38:13;;;;;;;9.57;6.70;;;;;;;9.95;74.10;93350.66;519334;28;917;-69
2024/03/01 00:38:29;;;;;;;8.80;6.70;;;;;;;9.94;73.98;93355.41;519249;28;774;-69
2024/03/01 00:38:44;;;;;;;8.40;6.57;;;;;;;9.83;73.91;93333.69;519300;28;794;-69
2024/03/01 00:39:00;;;;;;;8.23;6.50;;;;;;;9.99;73.72;93353.03;519090;28;793;-69
2024/03/01 00:39:15;;;;;;;7.72;6.10;;;;;;;10.02;74.03;93351.94;519367;28;806;-69
2024/03/01 00:39:31;;;;;;;8.40;6.00;;;;;;;10.05;73.70;93348.13;519289;28;813;-69
2024/03/01 00:39:46;;;;;;;8.43;6.40;;;;;;;10.07;73.60;93349.00;519353;28;798;-69
2024/03/01 00:40:02;;;;;;;8.88;6.68;;;;;;;10.08;74.11;93356.03;519192;28;912;-69
2024/03/01 00:40:17;;;;;;;9.30;6.87;;;;;;;10.09;73.85;93354.00;519235;28;837;-69
2024/03/01 00:40:33;;;;;;;9.52;6.68;;;;;;;10.10;73.53;93353.44;519299;28;809;-69
2024/03/01 00:40:48;;;;;;;9.23;6.07;;;;;;;10.13;73.08;93352.38;519328;28;937;-69
2024/03/01 00:41:03;;;;;;;7.32;5.88;;;;;;;10.08;73.21;93350.50;519200;28;877;-69
2024/03/01 00:41:19;;;;;;;6.87;5.97;;;;;;;10.01;72.86;93333.91;519272;28;813;-69
2024/03/01 00:41:34;;;;;;;9.15;6.30;;;;;;;10.02;72.99;93351.94;519365;28;881;-69
2024/03/01 00:41:50;;;;;;;8.00;5.77;;;;;;;10.01;72.97;93358.75;519207;28;940;-69
2024/03/01 00:42:05;;;;;;;6.60;5.33;;;;;;;10.04;73.15;93354.91;519254;28;774;-69
2024/03/01 00:42:21;;;;;;;8.13;5.88;;;;;;;10.06;73.21;93353.06;519307;28;797;-69
2024/03/01 00:42:37;;;;;;;8.53;6.23;;;;;;;10.07;72.96;93349.00;519310;28;835;-69
2024/03/01 00:42:52;;;;;;;7.78;5.97;;;;;;;10.07;73.18;93349.00;519383;28;873;-69
2024/03/01 00:43:08;;;;;;;8.73;5.82;;;;;;;10.10;72.66;93352.69;519182;28;793;-69
2024/03/01 00:43:23;;;;;;;9.10;5.90;;;;;;;10.13;73.09;93348.88;519427;28;841;-69
2024/03/01 00:43:38;;;;;;;8.45;5.97;;;;;;;10.14;72.63;93353.84;519379;28;869;-69
2024/03/01 00:43:55;;;;;;;8.07;5.90;;;;;;;10.15;72.83;93351.84;519536;28;762;-68
2024/03/01 00:44:11;;;;;;;8.10;5.78;;;;;;;10.15;72.65;93347.06;519454;28;884;-69
2024/03/01 00:44:26;;;;;;;7.13;5.40;;;;;;;10.09;73.00;93346.44;519390;28;1112;-69
2024/03/01 00:44:42;;;;;;;6.70;5.30;;;;;;;10.10;72.66;93347.94;519495;28;769;-68
2024/03/01 00:44:57;;;;;;;7.93;5.77;;;;;;;10.05;72.78;93339.84;519486;28;837;-69
2024/03/01 00:45:13;;;;;;;8.55;6.10;;;;;;;9.99;72.94;93348.25;519555;28;836;-69
2024/03/01 00:45:28;;;;;;;8.53;6.07;;;;;;;10.00;73.29;93341.47;519454;28;904;-69
2024/03/01 00:45:44;;;;;;;10.38;6.28;;;;;;;9.99;73.15;93337.22;519500;28;805;-69
2024/03/01 00:45:59;;;;;;;11.30;6.10;;;;;;;9.99;73.21;93342.75;519375;28;848;-68
2024/03/01 00:46:14;;;;;;;9.73;5.85;;;;;;;9.99;73.23;93340.00;519578;28;877;-69
2024/03/01 00:46:30;;;;;;;9.00;6.07;;;;;;;9.95;72.80;93342.38;519412;28;1910;-68
2024/03/01 00:46:45;;;;;;;9.47;6.23;;;;;;;10.00;73.39;93341.47;519599;28;812;-68
2024/03/01 00:47:01;;;;;;;9.18;6.03;;;;;;;10.02;73.06;93343.69;519404;28;798;-69
2024/03/01 00:47:16;;;;;;;7.60;5.83;;;;;;;10.04;73.06;93349.38;519626;28;1235;-69
2024/03/01 00:47:32;;;;;;;6.78;6.07;;;;;;;9.89;72.94;93314.97;521351;28;837;-69
2024/03/01 00:47:49;;;;;;;6.80;6.03;;;;;;;10.01;73.33;93334.66;521311;28;920;-68
2024/03/01 00:48:08;;;;;;;8.85;6.10;;;;;;;10.03;73.15;93337.59;521352;28;1016;-68
2024/03/01 00:48:25;;;;;;;7.95;6.00;;;;;;;10.07;73.47;93342.78;521429;28;826;-69
2024/03/01 00:48:41;;;;;;;7.00;5.97;;;;;;;10.09;73.42;93329.91;521233;28;853;-68
2024/03/01 00:48:57;;;;;;;9.18;6.25;;;;;;;9.83;72.95;93299.88;521174;28;1161;-69
2024/03/01 00:49:13;;;;;;;11.82;6.70;;;;;;;10.06;73.21;93331.00;521394;28;773;-68
2024/03/01 00:49:28;;;;;;;9.27;6.20;;;;;;;10.10;72.85;93336.91;521322;28;984;-68
2024/03/01 00:49:44;;;;;;;8.15;6.35;;;;;;;10.12;73.02;93325.34;521254;28;1024;-69
2024/03/01 00:50:00;;;;;;;7.75;6.18;;;;;;;10.07;72.82;93329.00;521272;28;892;-68
2024/03/01 00:50:16;;;;;;;7.30;5.60;;;;;;;10.08;72.87;93328.44;521377;28;810;-69
2024/03/01 00:50:31;;;;;;;7.80;5.65;;;;;;;10.10;73.07;93325.84;521362;28;785;-69
2024/03/01 00:50:47;;;;;;;7.10;5.40;;;;;;;10.13;72.72;93332.34;521360;28;793;-69
2024/03/01 00:51:02;;;;;;;5.90;5.00;;;;;;;10.14;72.76;93323.50;521295;28;892;-68
2024/03/01 00:51:18;;;;;;;6.10;5.28;;;;;;;10.15;72.30;93321.50;521264;28;833;-69
2024/03/01 00:51:33;;;;;;;6.40;5.53;;;;;;;10.14;72.19;93326.25;521331;28;801;-69
2024/03/01 00:51:48;;;;;;;7.10;5.37;;;;;;;10.13;72.25;93329.56;521317;28;857;-69
2024/03/01 00:52:04;;;;;;;7.63;5.78;;;;;;;10.11;72.05;93310.81;521375;28;793;-69
2024/03/01 00:52:19;;;;;;;7.47;6.10;;;;;;;10.13;72.26;93313.03;521330;28;789;-69
2024/03/01 00:52:35;;;;;;;7.28;5.63;;;;;;;10.15;72.42;93316.72;521352;28;837;-69
2024/03/01 00:52:50;;;;;;;6.43;5.40;;;;;;;10.15;72.31;93316.72;521232;28;896;-69
2024/03/01 00:53:07;;;;;;;6.43;5.40;;;;;;;10.15;72.12;93321.50;521402;28;774;-68
2024/03/01 00:53:22;;;;;;;7.40;5.50;;;;;;;10.16;72.18;93317.44;521343;28;821;-69
2024/03/01 00:53:37;;;;;;;8.30;5.50;;;;;;;10.17;72.10;93318.91;521323;28;934;-69
2024/03/01 00:53:53;;;;;;;8.85;5.78;;;;;;;10.09;72.52;93315.38;521342;28;849;-69
2024/03/01 00:54:08;;;;;;;7.13;5.47;;;;;;;10.08;72.32;93308.38;521266;28;793;-69
2024/03/01 00:54:24;;;;;;;6.07;4.97;;;;;;;10.09;72.21;93316.09;521423;28;845;-69
2024/03/01 00:54:39;;;;;;;8.17;5.57;;;;;;;10.11;72.18;93316.34;521266;28;853;-69
2024/03/01 00:54:55;;;;;;;7.77;5.93;;;;;;;10.12;72.30;93317.81;521382;28;857;-69
2024/03/01 00:55:10;;;;;;;7.05;5.75;;;;;;;10.11;72.27;93310.09;521367;28;817;-69
2024/03/01 00:55:26;;;;;;;6.83;5.60;;;;;;;10.14;72.28;93306.94;521361;28;821;-69
2024/03/01 00:55:41;;;;;;;6.88;5.63;;;;;;;10.07;71.98;93307.63;521190;28;900;-69
2024/03/01 00:55:57;;;;;;;8.30;5.37;;;;;;;10.12;72.22;93311.53;521360;28;793;-69
2024/03/01 00:56:12;;;;;;;8.02;4.97;;;;;;;10.09;72.07;93302.31;521416;28;784;-69
2024/03/01 00:56:27;;;;;;;7.23;5.17;;;;;;;10.11;72.12;93308.06;521330;28;770;-69
2024/03/01 00:56:45;;;;;;;6.90;5.35;;;;;;;10.11;71.89;93299.78;521305;28;849;-69
2024/03/01 00:57:01;;;;;;;5.97;4.78;;;;;;;10.09;72.33;93299.56;521221;28;915;-68
2024/03/01 00:57:16;;;;;;;8.27;5.18;;;;;;;10.10;72.07;93301.03;521347;28;849;-68
2024/03/01 00:57:32;;;;;;;8.80;5.43;;;;;;;10.12;72.03;93304.00;521344;28;793;-68
2024/03/01 00:57:47;;;;;;;8.15;5.50;;;;;;;10.13;72.12;93299.22;521381;28;829;-68
2024/03/01 00:58:03;;;;;;;8.53;5.50;;;;;;;10.14;72.16;93303.44;521244;28;758;-69
2024/03/01 00:58:18;;;;;;;8.40;5.45;;;;;;;10.12;71.96;93301.25;521314;28;778;-69
2024/03/01 00:58:34;;;;;;;9.10;5.60;;;;;;;10.14;72.24;93303.44;521398;28;805;-69
2024/03/01 00:58:49;;;;;;;7.88;5.38;;;;;;;10.11;71.90;93299.06;521272;28;853;-68
2024/03/01 00:59:05;;;;;;;6.93;4.97;;;;;;;10.17;71.93;93300.34;521433;28;828;-68
2024/03/01 00:59:23;;;;;;;6.25;4.75;;;;;;;10.17;71.84;93294.81;521399;28;877;-68
2024/03/01 00:59:38;;;;;;;5.80;5.00;;;;;;;10.19;71.56;93300.53;521303;28;925;-68
2024/03/01 00:59:53;;;;;;;7.13;5.43;;;;;;;10.20;72.04;93299.22;521325;28;841;-68
2024/03/01 01:00:09;;;;;;;7.70;5.80;;;;;;;10.19;71.61;93303.28;521339;28;797;-68
2024/03/01 01:00:28;;;;;;;7.72;6.07;;;;;;;10.16;72.09;93298.84;519088;28;908;-68
2024/03/01 01:00:43;;;;;;;7.25;5.35;;;;;;;10.06;71.87;93292.38;519160;28;920;-68
2024/03/01 01:00:59;;;;;;;6.80;4.93;;;;;;;10.05;71.99;93292.94;519082;28;806;-69
2024/03/01 01:01:17;;;;;;;7.45;5.60;;;;;;;10.06;72.12;93292.38;519172;28;865;-68
2024/03/01 01:01:33;;;;;;;6.65;5.70;;;;;;;10.10;72.58;93297.53;519193;28;877;-69
2024/03/01 01:01:49;;;;;;;6.88;5.28;;;;;;;10.09;72.07;93291.28;519131;28;837;-68
2024/03/01 01:02:07;;;;;;;6.65;5.00;;;;;;;10.10;71.92;93292.75;519156;28;904;-68
2024/03/01 01:02:22;;;;;;;6.88;5.47;;;;;;;10.13;71.92;93290.97;520893;28;907;-68
2024/03/01 01:02:38;;;;;;;6.63;5.50;;;;;;;10.16;71.98;93292.59;521385;28;900;-68
2024/03/01 01:02:54;;;;;;;6.88;5.28;;;;;;;9.92;71.86;93255.22;521597;28;1087;-68
2024/03/01 01:03:09;;;;;;;7.57;5.20;;;;;;;10.13;71.65;93297.22;521464;28;766;-68
2024/03/01 01:03:24;;;;;;;7.45;5.70;;;;;;;10.08;71.64;93292.56;521527;28;912;-69
2024/03/01 01:03:40;;;;;;;7.13;5.57;;;;;;;10.07;71.83;93285.56;521476;28;770;-68
2024/03/01 01:03:56;;;;;;;5.80;4.80;;;;;;;10.04;72.16;93292.19;521292;28;896;-68
2024/03/01 01:04:11;;;;;;;6.17;5.20;;;;;;;10.03;71.85;93276.22;521474;28;864;-68
2024/03/01 01:04:26;;;;;;;6.57;5.28;;;;;;;10.02;71.80;93286.50;521487;28;873;-68
2024/03/01 01:04:42;;;;;;;6.90;4.67;;;;;;;10.01;71.73;93285.00;521479;28;829;-68
2024/03/01 01:04:58;;;;;;;7.18;4.82;;;;;;;9.99;71.79;93293.09;521445;28;825;-69
2024/03/01 01:05:13;;;;;;;6.37;5.13;;;;;;;10.01;72.00;93298.81;521448;28;821;-68
2024/03/01 01:05:28;;;;;;;5.80;5.00;;;;;;;10.03;71.93;93284.50;521439;28;766;-68
2024/03/01 01:05:44;;;;;;;5.97;5.07;;;;;;;10.05;71.50;93292.94;521490;28;881;-69
2024/03/01 01:06:00;;;;;;;6.55;4.78;;;;;;;10.06;71.82;93288.88;521408;28;869;-68
2024/03/01 01:06:15;;;;;;;7.35;4.97;;;;;;;10.06;71.80;93286.88;521507;28;854;-69
2024/03/01 01:06:31;;;;;;;8.67;5.73;;;;;;;10.04;71.69;93283.19;521404;28;1968;-69
2024/03/01 01:06:46;;;;;;;8.50;5.80;;;;;;;10.07;71.67;93284.84;521422;28;877;-68
2024/03/01 01:07:02;;;;;;;7.15;5.43;;;;;;;10.05;71.34;93281.91;521535;28;879;-69
2024/03/01 01:07:19;;;;;;;6.97;5.17;;;;;;;10.07;71.44;93285.56;521525;28;821;-68
2024/03/01 01:07:35;;;;;;;5.80;5.07;;;;;;;10.11;71.68;93288.75;521389;28;929;-68
2024/03/01 01:07:50;;;;;;;7.63;5.43;;;;;;;10.10;71.36;93298.28;521502;28;766;-68
2024/03/01 01:08:06;;;;;;;8.23;5.18;;;;;;;10.13;71.28;93290.97;521368;28;1673;-69
2024/03/01 01:08:24;;;;;;;7.43;5.00;;;;;;;10.12;71.33;93284.69;521491;28;1014;-68
2024/03/01 01:08:39;;;;;;;6.70;5.10;;;;;;;10.15;70.58;93293.91;521450;28;806;-68
2024/03/01 01:08:55;;;;;;;6.68;5.18;;;;;;;10.16;70.56;93281.56;521516;28;778;-69
2024/03/01 01:09:11;;;;;;;5.67;4.93;;;;;;;10.18;70.94;93292.81;521483;28;805;-69
2024/03/01 01:09:26;;;;;;;5.78;4.70;;;;;;;10.17;70.99;93283.06;521476;28;904;-69
2024/03/01 01:09:42;;;;;;;6.47;4.78;;;;;;;10.18;70.83;93290.78;521491;28;813;-69
2024/03/01 01:09:58;;;;;;;5.95;4.85;;;;;;;10.11;71.05;93290.78;521481;28;892;-69
2024/03/01 01:10:13;;;;;;;6.60;4.77;;;;;;;10.11;70.99;93286.00;521582;28;790;-68
2024/03/01 01:10:29;;;;;;;8.18;4.80;;;;;;;10.13;70.89;93288.94;519275;28;802;-69
2024/03/01 01:10:44;;;;;;;9.53;5.00;;;;;;;10.12;70.63;93289.47;519270;28;877;-69
2024/03/01 01:10:59;;;;;;;10.13;4.80;;;;;;;10.13;70.73;93279.91;519146;28;833;-68
2024/03/01 01:11:15;;;;;;;7.85;4.53;;;;;;;10.15;70.71;93286.38;519321;28;833;-69
2024/03/01 01:11:30;;;;;;;6.70;4.50;;;;;;;10.11;70.70;93283.25;519284;28;766;-69
2024/03/01 01:11:46;;;;;;;6.97;4.95;;;;;;;10.09;71.10;93283.00;519345;28;849;-69
2024/03/01 01:12:01;;;;;;;6.90;5.17;;;;;;;10.09;71.46;93280.25;519250;28;766;-69
2024/03/01 01:12:17;;;;;;;6.15;4.78;;;;;;;10.10;71.50;93278.97;519580;28;892;-69
2024/03/01 01:12:32;;;;;;;7.10;4.97;;;;;;;10.05;72.14;93276.41;521543;28;813;-69
2024/03/01 01:12:48;;;;;;;8.00;5.40;;;;;;;10.06;72.32;93280.63;521512;28;817;-68
2024/03/01 01:13:03;;;;;;;6.57;5.27;;;;;;;10.08;72.14;93280.78;521447;28;785;-69
2024/03/01 01:13:19;;;;;;;5.40;4.90;;;;;;;10.09;71.46;93274.00;521474;28;777;-69
2024/03/01 01:13:34;;;;;;;5.77;4.73;;;;;;;10.06;71.29;93277.84;521480;28;993;-68
2024/03/01 01:13:50;;;;;;;8.30;5.38;;;;;;;10.04;71.31;93275.66;521435;28;853;-69
2024/03/01 01:14:05;;;;;;;8.60;5.60;;;;;;;10.05;71.34;93279.16;521405;28;833;-68
2024/03/01 01:14:21;;;;;;;8.50;5.33;;;;;;;10.08;71.09;93278.78;521392;28;908;-68
2024/03/01 01:14:36;;;;;;;7.68;5.13;;;;;;;10.09;71.24;93271.97;521203;28;797;-69
2024/03/01 01:14:51;;;;;;;6.67;5.23;;;;;;;10.13;71.23;93279.91;521176;28;829;-69
2024/03/01 01:15:07;;;;;;;7.32;5.07;;;;;;;10.11;70.97;93274.97;521202;28;771;-69
2024/03/01 01:15:23;;;;;;;6.85;5.15;;;;;;;9.90;71.16;93235.72;521490;28;762;-69
2024/03/01 01:15:38;;;;;;;6.30;5.53;;;;;;;10.16;71.19;93273.28;521467;28;888;-69
2024/03/01 01:15:54;;;;;;;6.73;5.20;;;;;;;10.18;71.02;93279.03;521570;28;786;-69
2024/03/01 01:16:09;;;;;;;6.78;5.13;;;;;;;10.18;71.14;93267.97;521429;28;864;-69
2024/03/01 01:16:25;;;;;;;6.47;5.47;;;;;;;10.18;70.92;93276.25;521415;28;842;-69
2024/03/01 01:16:40;;;;;;;6.53;5.32;;;;;;;10.16;70.93;93273.28;521499;28;845;-69